sensor_id;sensor_type;location;lat;lon;timestamp;temperature;humidity
44487;DHT22;30191;50.908;6.962;2022-08-01T00:01:21;23.00;99.90
44487;DHT22;30191;50.908;6.962;2022-08-01T00:03:47;23.00;99.90
44487;DHT22;30191;50.908;6.962;2022-08-01T00:06:13;23.00;99.90
44487;DHT22;30191;50.908;6.962;2022-08-01T00:08:38;22.90;99.90
44487;DHT22;30191;50.908;6.962;2022-08-01T00:11:04;23.00;99.90
44487;DHT22;30191;50.908;6.962;2022-08-01T00:13:30;23.00;99.90
44487;DHT22;30191;50.908;6.962;2022-08-01T00:15:56;23.00;99.90
44487;DHT22;30191;50.908;6.962;2022-08-01T00:18:21;22.90;99.90
44487;DHT22;30191;50.908;6.962;2022-08-01T00:20:47;22.90;99.90
44487;DHT22;30191;50.908;6.962;2022-08-01T00:23:13;22.90;99.90
44487;DHT22;30191;50.908;6.962;2022-08-01T00:25:38;22.90;99.90
44487;DHT22;30191;50.908;6.962;2022-08-01T00:28:04;22.90;99.90
44487;DHT22;30191;50.908;6.962;2022-08-01T00:30:34;22.90;99.90
44487;DHT22;30191;50.908;6.962;2022-08-01T00:33:00;22.90;99.90
44487;DHT22;30191;50.908;6.962;2022-08-01T00:35:26;22.90;99.90
44487;DHT22;30191;50.908;6.962;2022-08-01T00:37:51;22.90;99.90
44487;DHT22;30191;50.908;6.962;2022-08-01T00:40:17;22.90;99.90
44487;DHT22;30191;50.908;6.962;2022-08-01T00:42:43;22.90;99.90
44487;DHT22;30191;50.908;6.962;2022-08-01T00:45:09;22.80;99.90
44487;DHT22;30191;50.908;6.962;2022-08-01T00:47:35;22.80;99.90
44487;DHT22;30191;50.908;6.962;2022-08-01T00:50:03;22.80;99.90
44487;DHT22;30191;50.908;6.962;2022-08-01T00:52:29;22.70;99.90
44487;DHT22;30191;50.908;6.962;2022-08-01T00:54:55;22.70;99.90
44487;DHT22;30191;50.908;6.962;2022-08-01T00:57:21;22.70;99.90
44487;DHT22;30191;50.908;6.962;2022-08-01T00:59:47;22.70;99.90
44487;DHT22;30191;50.908;6.962;2022-08-01T01:02:13;22.70;99.90
44487;DHT22;30191;50.908;6.962;2022-08-01T01:04:38;22.60;99.90
44487;DHT22;30191;50.908;6.962;2022-08-01T01:10:32;22.50;99.90
44487;DHT22;30191;50.908;6.962;2022-08-01T01:13:14;22.60;99.90
44487;DHT22;30191;50.908;6.962;2022-08-01T01:15:47;22.50;99.90
44487;DHT22;30191;50.908;6.962;2022-08-01T01:18:17;22.50;99.90
44487;DHT22;30191;50.908;6.962;2022-08-01T01:21:00;22.40;99.90
44487;DHT22;30191;50.908;6.962;2022-08-01T01:31:33;22.30;99.90
44487;DHT22;30191;50.908;6.962;2022-08-01T01:34:02;22.30;99.90
44487;DHT22;30191;50.908;6.962;2022-08-01T01:36:31;22.30;99.90
44487;DHT22;30191;50.908;6.962;2022-08-01T01:38:58;22.20;99.90
44487;DHT22;30191;50.908;6.962;2022-08-01T01:41:26;22.20;99.90
44487;DHT22;30191;50.908;6.962;2022-08-01T01:43:54;22.20;99.90
44487;DHT22;30191;50.908;6.962;2022-08-01T01:46:23;22.10;99.90
44487;DHT22;30191;50.908;6.962;2022-08-01T01:48:50;22.10;99.90
44487;DHT22;30191;50.908;6.962;2022-08-01T01:51:18;22.10;99.90
44487;DHT22;30191;50.908;6.962;2022-08-01T01:53:48;22.00;99.90
44487;DHT22;30191;50.908;6.962;2022-08-01T01:56:16;22.10;99.90
44487;DHT22;30191;50.908;6.962;2022-08-01T01:58:46;22.00;99.90
44487;DHT22;30191;50.908;6.962;2022-08-01T02:01:14;22.00;99.90
44487;DHT22;30191;50.908;6.962;2022-08-01T02:03:43;22.00;99.90
44487;DHT22;30191;50.908;6.962;2022-08-01T02:06:09;22.00;99.90
44487;DHT22;30191;50.908;6.962;2022-08-01T02:08:37;22.00;99.90
44487;DHT22;30191;50.908;6.962;2022-08-01T02:11:04;22.00;99.90
44487;DHT22;30191;50.908;6.962;2022-08-01T02:14:02;22.00;99.90
44487;DHT22;30191;50.908;6.962;2022-08-01T02:16:31;22.00;99.90
44487;DHT22;30191;50.908;6.962;2022-08-01T02:18:59;22.10;99.90
44487;DHT22;30191;50.908;6.962;2022-08-01T02:21:30;22.10;99.90
44487;DHT22;30191;50.908;6.962;2022-08-01T02:27:01;22.10;99.90
44487;DHT22;30191;50.908;6.962;2022-08-01T02:29:36;22.00;99.90
44487;DHT22;30191;50.908;6.962;2022-08-01T02:32:04;22.00;99.90
44487;DHT22;30191;50.908;6.962;2022-08-01T02:34:33;22.00;99.90
44487;DHT22;30191;50.908;6.962;2022-08-01T02:37:02;22.10;99.90
44487;DHT22;30191;50.908;6.962;2022-08-01T02:39:30;22.10;99.90
44487;DHT22;30191;50.908;6.962;2022-08-01T02:41:59;22.00;99.90
44487;DHT22;30191;50.908;6.962;2022-08-01T02:44:38;22.10;99.90
44487;DHT22;30191;50.908;6.962;2022-08-01T02:47:05;22.00;99.90
44487;DHT22;30191;50.908;6.962;2022-08-01T02:49:37;22.00;99.90
44487;DHT22;30191;50.908;6.962;2022-08-01T02:52:07;22.00;99.90
44487;DHT22;30191;50.908;6.962;2022-08-01T02:54:35;22.00;99.90
44487;DHT22;30191;50.908;6.962;2022-08-01T02:57:02;22.00;99.90
44487;DHT22;30191;50.908;6.962;2022-08-01T02:59:29;22.00;99.90
44487;DHT22;30191;50.908;6.962;2022-08-01T03:01:59;21.90;99.90
44487;DHT22;30191;50.908;6.962;2022-08-01T03:04:26;21.90;99.90
44487;DHT22;30191;50.908;6.962;2022-08-01T03:06:56;21.90;99.90
44487;DHT22;30191;50.908;6.962;2022-08-01T03:09:24;21.80;99.90
44487;DHT22;30191;50.908;6.962;2022-08-01T03:11:51;21.90;99.90
44487;DHT22;30191;50.908;6.962;2022-08-01T03:14:19;21.90;99.90
44487;DHT22;30191;50.908;6.962;2022-08-01T03:16:46;21.90;99.90
44487;DHT22;30191;50.908;6.962;2022-08-01T03:19:13;21.90;99.90
44487;DHT22;30191;50.908;6.962;2022-08-01T03:21:43;21.90;99.90
44487;DHT22;30191;50.908;6.962;2022-08-01T03:24:10;21.90;99.90
44487;DHT22;30191;50.908;6.962;2022-08-01T03:26:38;21.90;99.90
44487;DHT22;30191;50.908;6.962;2022-08-01T03:29:12;21.80;99.90
44487;DHT22;30191;50.908;6.962;2022-08-01T03:31:40;21.90;99.90
44487;DHT22;30191;50.908;6.962;2022-08-01T03:34:09;21.90;99.90
44487;DHT22;30191;50.908;6.962;2022-08-01T03:36:44;21.80;99.90
44487;DHT22;30191;50.908;6.962;2022-08-01T03:39:11;21.80;99.90
44487;DHT22;30191;50.908;6.962;2022-08-01T03:41:41;21.80;99.90
44487;DHT22;30191;50.908;6.962;2022-08-01T03:44:13;21.80;99.90
44487;DHT22;30191;50.908;6.962;2022-08-01T03:46:43;21.80;99.90
44487;DHT22;30191;50.908;6.962;2022-08-01T03:49:24;21.80;99.90
44487;DHT22;30191;50.908;6.962;2022-08-01T03:51:51;21.80;99.90
44487;DHT22;30191;50.908;6.962;2022-08-01T03:54:21;21.80;99.90
44487;DHT22;30191;50.908;6.962;2022-08-01T03:56:49;21.70;99.90
44487;DHT22;30191;50.908;6.962;2022-08-01T03:59:17;21.80;99.90
44487;DHT22;30191;50.908;6.962;2022-08-01T04:01:44;21.70;99.90
44487;DHT22;30191;50.908;6.962;2022-08-01T04:04:11;21.70;99.90
44487;DHT22;30191;50.908;6.962;2022-08-01T04:06:38;21.80;99.90
44487;DHT22;30191;50.908;6.962;2022-08-01T04:09:04;21.80;99.90
44487;DHT22;30191;50.908;6.962;2022-08-01T04:11:30;21.70;99.90
44487;DHT22;30191;50.908;6.962;2022-08-01T04:13:56;21.70;99.90
44487;DHT22;30191;50.908;6.962;2022-08-01T04:16:22;21.70;99.90
44487;DHT22;30191;50.908;6.962;2022-08-01T04:18:48;21.70;99.90
44487;DHT22;30191;50.908;6.962;2022-08-01T04:21:14;21.70;99.90
44487;DHT22;30191;50.908;6.962;2022-08-01T04:23:44;21.80;99.90
44487;DHT22;30191;50.908;6.962;2022-08-01T04:26:12;21.70;99.90
44487;DHT22;30191;50.908;6.962;2022-08-01T04:28:40;21.70;99.90
44487;DHT22;30191;50.908;6.962;2022-08-01T04:31:09;21.60;99.90
44487;DHT22;30191;50.908;6.962;2022-08-01T04:33:39;21.60;99.90
44487;DHT22;30191;50.908;6.962;2022-08-01T04:36:06;21.60;99.90
44487;DHT22;30191;50.908;6.962;2022-08-01T04:38:35;21.60;99.90
44487;DHT22;30191;50.908;6.962;2022-08-01T04:41:04;21.70;99.90
44487;DHT22;30191;50.908;6.962;2022-08-01T04:43:32;21.70;99.90
44487;DHT22;30191;50.908;6.962;2022-08-01T04:45:58;21.70;99.90
44487;DHT22;30191;50.908;6.962;2022-08-01T04:48:24;21.70;99.90
44487;DHT22;30191;50.908;6.962;2022-08-01T04:50:51;21.60;99.90
44487;DHT22;30191;50.908;6.962;2022-08-01T04:53:19;21.60;99.90
44487;DHT22;30191;50.908;6.962;2022-08-01T04:55:47;21.60;99.90
44487;DHT22;30191;50.908;6.962;2022-08-01T04:58:14;21.60;99.90
44487;DHT22;30191;50.908;6.962;2022-08-01T05:00:40;21.50;99.90
44487;DHT22;30191;50.908;6.962;2022-08-01T05:03:05;21.50;99.90
44487;DHT22;30191;50.908;6.962;2022-08-01T05:05:31;21.50;99.90
44487;DHT22;30191;50.908;6.962;2022-08-01T05:07:57;21.50;99.90
44487;DHT22;30191;50.908;6.962;2022-08-01T05:10:23;21.50;99.90
44487;DHT22;30191;50.908;6.962;2022-08-01T05:12:49;21.60;99.90
44487;DHT22;30191;50.908;6.962;2022-08-01T05:15:14;21.60;99.90
44487;DHT22;30191;50.908;6.962;2022-08-01T05:17:41;21.60;99.90
44487;DHT22;30191;50.908;6.962;2022-08-01T05:20:11;21.60;99.90
44487;DHT22;30191;50.908;6.962;2022-08-01T05:22:37;21.60;99.90
44487;DHT22;30191;50.908;6.962;2022-08-01T05:25:03;21.60;99.90
44487;DHT22;30191;50.908;6.962;2022-08-01T05:27:31;21.50;99.90
44487;DHT22;30191;50.908;6.962;2022-08-01T05:29:57;21.60;99.90
44487;DHT22;30191;50.908;6.962;2022-08-01T05:32:23;21.60;99.90
44487;DHT22;30191;50.908;6.962;2022-08-01T05:34:48;21.60;99.90
44487;DHT22;30191;50.908;6.962;2022-08-01T05:37:14;21.60;99.90
44487;DHT22;30191;50.908;6.962;2022-08-01T05:39:40;21.60;99.90
44487;DHT22;30191;50.908;6.962;2022-08-01T05:42:06;21.60;99.90
44487;DHT22;30191;50.908;6.962;2022-08-01T05:44:32;21.60;99.90
44487;DHT22;30191;50.908;6.962;2022-08-01T05:46:58;21.60;99.90
44487;DHT22;30191;50.908;6.962;2022-08-01T05:49:23;21.60;99.90
44487;DHT22;30191;50.908;6.962;2022-08-01T05:51:49;21.60;99.90
44487;DHT22;30191;50.908;6.962;2022-08-01T05:54:15;21.60;99.90
44487;DHT22;30191;50.908;6.962;2022-08-01T05:56:41;21.60;99.90
44487;DHT22;30191;50.908;6.962;2022-08-01T05:59:06;21.60;99.90
44487;DHT22;30191;50.908;6.962;2022-08-01T06:01:32;21.60;99.90
44487;DHT22;30191;50.908;6.962;2022-08-01T06:03:58;21.60;99.90
44487;DHT22;30191;50.908;6.962;2022-08-01T06:06:23;21.60;99.90
44487;DHT22;30191;50.908;6.962;2022-08-01T06:08:49;21.60;99.90
44487;DHT22;30191;50.908;6.962;2022-08-01T06:11:15;21.60;99.90
44487;DHT22;30191;50.908;6.962;2022-08-01T06:13:41;21.50;99.90
44487;DHT22;30191;50.908;6.962;2022-08-01T06:16:07;21.50;99.90
44487;DHT22;30191;50.908;6.962;2022-08-01T06:18:32;21.50;99.90
44487;DHT22;30191;50.908;6.962;2022-08-01T06:20:58;21.50;99.90
44487;DHT22;30191;50.908;6.962;2022-08-01T06:23:24;21.50;99.90
44487;DHT22;30191;50.908;6.962;2022-08-01T06:25:52;21.50;99.90
44487;DHT22;30191;50.908;6.962;2022-08-01T06:28:19;21.50;99.90
44487;DHT22;30191;50.908;6.962;2022-08-01T06:30:45;21.50;99.90
44487;DHT22;30191;50.908;6.962;2022-08-01T06:33:11;21.60;99.90
44487;DHT22;30191;50.908;6.962;2022-08-01T06:35:36;21.60;99.90
44487;DHT22;30191;50.908;6.962;2022-08-01T06:38:03;21.60;99.90
44487;DHT22;30191;50.908;6.962;2022-08-01T06:40:28;21.60;99.90
44487;DHT22;30191;50.908;6.962;2022-08-01T06:42:54;21.70;99.90
44487;DHT22;30191;50.908;6.962;2022-08-01T06:45:20;21.70;99.90
44487;DHT22;30191;50.908;6.962;2022-08-01T06:47:48;21.80;99.90
44487;DHT22;30191;50.908;6.962;2022-08-01T06:50:14;21.70;99.90
44487;DHT22;30191;50.908;6.962;2022-08-01T06:52:40;21.80;99.90
44487;DHT22;30191;50.908;6.962;2022-08-01T06:55:07;21.80;99.90
44487;DHT22;30191;50.908;6.962;2022-08-01T06:57:33;21.80;99.90
44487;DHT22;30191;50.908;6.962;2022-08-01T07:00:03;21.80;99.90
44487;DHT22;30191;50.908;6.962;2022-08-01T07:02:29;21.80;99.90
44487;DHT22;30191;50.908;6.962;2022-08-01T07:04:55;21.70;99.90
44487;DHT22;30191;50.908;6.962;2022-08-01T07:07:20;21.70;99.90
44487;DHT22;30191;50.908;6.962;2022-08-01T07:09:46;21.70;99.90
44487;DHT22;30191;50.908;6.962;2022-08-01T07:12:12;21.70;99.90
44487;DHT22;30191;50.908;6.962;2022-08-01T07:14:37;21.70;99.90
44487;DHT22;30191;50.908;6.962;2022-08-01T07:17:03;21.70;99.90
44487;DHT22;30191;50.908;6.962;2022-08-01T07:19:28;21.70;99.90
44487;DHT22;30191;50.908;6.962;2022-08-01T07:21:54;21.70;99.90
44487;DHT22;30191;50.908;6.962;2022-08-01T07:24:20;21.70;99.90
44487;DHT22;30191;50.908;6.962;2022-08-01T07:26:47;21.70;99.90
44487;DHT22;30191;50.908;6.962;2022-08-01T07:29:13;21.70;99.90
44487;DHT22;30191;50.908;6.962;2022-08-01T07:31:39;21.80;99.90
44487;DHT22;30191;50.908;6.962;2022-08-01T07:34:04;21.80;99.90
44487;DHT22;30191;50.908;6.962;2022-08-01T07:36:30;21.80;99.90
44487;DHT22;30191;50.908;6.962;2022-08-01T07:38:56;21.80;99.90
44487;DHT22;30191;50.908;6.962;2022-08-01T07:41:22;21.80;99.90
44487;DHT22;30191;50.908;6.962;2022-08-01T07:43:48;21.80;99.90
44487;DHT22;30191;50.908;6.962;2022-08-01T07:46:15;21.80;99.90
44487;DHT22;30191;50.908;6.962;2022-08-01T07:48:41;21.80;99.90
44487;DHT22;30191;50.908;6.962;2022-08-01T07:51:07;21.80;99.90
44487;DHT22;30191;50.908;6.962;2022-08-01T07:53:33;21.80;99.90
44487;DHT22;30191;50.908;6.962;2022-08-01T07:55:59;21.80;99.90
44487;DHT22;30191;50.908;6.962;2022-08-01T07:58:25;21.80;99.90
44487;DHT22;30191;50.908;6.962;2022-08-01T08:00:51;21.80;99.90
44487;DHT22;30191;50.908;6.962;2022-08-01T08:03:16;21.90;99.90
44487;DHT22;30191;50.908;6.962;2022-08-01T08:05:42;21.90;99.90
44487;DHT22;30191;50.908;6.962;2022-08-01T08:08:08;21.90;99.90
44487;DHT22;30191;50.908;6.962;2022-08-01T08:10:35;21.90;99.90
44487;DHT22;30191;50.908;6.962;2022-08-01T08:13:01;22.00;99.90
44487;DHT22;30191;50.908;6.962;2022-08-01T08:15:28;22.00;99.90
44487;DHT22;30191;50.908;6.962;2022-08-01T08:17:54;22.00;99.90
44487;DHT22;30191;50.908;6.962;2022-08-01T08:20:19;22.00;99.90
44487;DHT22;30191;50.908;6.962;2022-08-01T08:22:50;22.10;99.90
44487;DHT22;30191;50.908;6.962;2022-08-01T08:25:16;22.10;99.90
44487;DHT22;30191;50.908;6.962;2022-08-01T08:27:44;22.10;99.90
44487;DHT22;30191;50.908;6.962;2022-08-01T08:30:10;22.10;99.90
44487;DHT22;30191;50.908;6.962;2022-08-01T08:32:37;22.20;99.90
44487;DHT22;30191;50.908;6.962;2022-08-01T08:35:03;22.20;99.90
44487;DHT22;30191;50.908;6.962;2022-08-01T08:37:31;22.20;99.90
44487;DHT22;30191;50.908;6.962;2022-08-01T08:39:57;22.30;99.90
44487;DHT22;30191;50.908;6.962;2022-08-01T08:42:22;22.30;99.90
44487;DHT22;30191;50.908;6.962;2022-08-01T08:44:48;22.30;99.90
44487;DHT22;30191;50.908;6.962;2022-08-01T08:47:15;22.20;99.90
44487;DHT22;30191;50.908;6.962;2022-08-01T08:49:44;22.30;99.90
44487;DHT22;30191;50.908;6.962;2022-08-01T08:52:10;22.30;99.90
44487;DHT22;30191;50.908;6.962;2022-08-01T08:54:41;22.30;99.90
44487;DHT22;30191;50.908;6.962;2022-08-01T08:57:07;22.30;99.90
44487;DHT22;30191;50.908;6.962;2022-08-01T08:59:33;22.30;99.90
44487;DHT22;30191;50.908;6.962;2022-08-01T09:01:59;22.30;99.90
44487;DHT22;30191;50.908;6.962;2022-08-01T09:04:25;22.30;99.90
44487;DHT22;30191;50.908;6.962;2022-08-01T09:06:52;22.30;99.90
44487;DHT22;30191;50.908;6.962;2022-08-01T09:09:19;22.30;99.90
44487;DHT22;30191;50.908;6.962;2022-08-01T09:11:45;22.30;99.90
44487;DHT22;30191;50.908;6.962;2022-08-01T09:14:16;22.30;99.90
44487;DHT22;30191;50.908;6.962;2022-08-01T09:17:19;22.40;99.90
44487;DHT22;30191;50.908;6.962;2022-08-01T09:19:55;22.40;99.90
44487;DHT22;30191;50.908;6.962;2022-08-01T09:22:23;22.50;99.90
44487;DHT22;30191;50.908;6.962;2022-08-01T09:25:09;22.40;99.90
44487;DHT22;30191;50.908;6.962;2022-08-01T09:27:37;22.50;99.90
44487;DHT22;30191;50.908;6.962;2022-08-01T09:30:12;22.50;99.90
44487;DHT22;30191;50.908;6.962;2022-08-01T09:32:58;22.50;99.90
44487;DHT22;30191;50.908;6.962;2022-08-01T09:35:35;22.60;99.90
44487;DHT22;30191;50.908;6.962;2022-08-01T09:38:18;22.60;99.90
44487;DHT22;30191;50.908;6.962;2022-08-01T09:43:11;22.60;99.90
44487;DHT22;30191;50.908;6.962;2022-08-01T09:45:37;22.60;99.90
44487;DHT22;30191;50.908;6.962;2022-08-01T09:48:07;22.70;99.90
44487;DHT22;30191;50.908;6.962;2022-08-01T09:50:40;22.70;99.90
44487;DHT22;30191;50.908;6.962;2022-08-01T09:53:07;22.70;99.90
44487;DHT22;30191;50.908;6.962;2022-08-01T09:55:33;22.70;99.90
44487;DHT22;30191;50.908;6.962;2022-08-01T09:57:59;22.70;99.90
44487;DHT22;30191;50.908;6.962;2022-08-01T10:00:26;22.80;99.90
44487;DHT22;30191;50.908;6.962;2022-08-01T10:02:53;22.80;99.90
44487;DHT22;30191;50.908;6.962;2022-08-01T10:05:30;22.80;99.90
44487;DHT22;30191;50.908;6.962;2022-08-01T10:08:02;22.90;99.90
44487;DHT22;30191;50.908;6.962;2022-08-01T10:10:29;23.00;99.90
44487;DHT22;30191;50.908;6.962;2022-08-01T10:12:57;23.00;99.90
44487;DHT22;30191;50.908;6.962;2022-08-01T10:15:24;23.00;99.90
44487;DHT22;30191;50.908;6.962;2022-08-01T10:17:57;23.10;99.90
44487;DHT22;30191;50.908;6.962;2022-08-01T10:20:28;23.10;99.90
44487;DHT22;30191;50.908;6.962;2022-08-01T10:22:55;23.10;99.90
44487;DHT22;30191;50.908;6.962;2022-08-01T10:25:23;23.20;99.90
44487;DHT22;30191;50.908;6.962;2022-08-01T10:27:50;23.20;99.90
44487;DHT22;30191;50.908;6.962;2022-08-01T10:30:17;23.10;99.90
44487;DHT22;30191;50.908;6.962;2022-08-01T10:32:45;23.10;99.90
44487;DHT22;30191;50.908;6.962;2022-08-01T10:35:11;23.20;99.90
44487;DHT22;30191;50.908;6.962;2022-08-01T10:37:43;23.20;99.90
44487;DHT22;30191;50.908;6.962;2022-08-01T10:40:14;23.20;99.90
44487;DHT22;30191;50.908;6.962;2022-08-01T10:42:44;23.30;99.90
44487;DHT22;30191;50.908;6.962;2022-08-01T10:45:15;23.30;99.90
44487;DHT22;30191;50.908;6.962;2022-08-01T10:50:21;23.30;99.90
44487;DHT22;30191;50.908;6.962;2022-08-01T10:53:10;23.30;99.90
44487;DHT22;30191;50.908;6.962;2022-08-01T10:58:23;23.40;99.90
44487;DHT22;30191;50.908;6.962;2022-08-01T11:09:01;23.30;99.90
44487;DHT22;30191;50.908;6.962;2022-08-01T11:11:27;23.30;99.90
44487;DHT22;30191;50.908;6.962;2022-08-01T11:14:05;23.30;99.90
44487;DHT22;30191;50.908;6.962;2022-08-01T11:16:39;23.40;99.90
44487;DHT22;30191;50.908;6.962;2022-08-01T11:19:06;23.40;99.90
44487;DHT22;30191;50.908;6.962;2022-08-01T11:27:22;23.50;99.90
44487;DHT22;30191;50.908;6.962;2022-08-01T11:33:02;23.70;99.90
44487;DHT22;30191;50.908;6.962;2022-08-01T11:35:28;23.70;99.90
44487;DHT22;30191;50.908;6.962;2022-08-01T11:37:54;23.80;99.90
44487;DHT22;30191;50.908;6.962;2022-08-01T11:40:24;23.80;99.90
44487;DHT22;30191;50.908;6.962;2022-08-01T11:45:54;23.90;99.90
44487;DHT22;30191;50.908;6.962;2022-08-01T11:48:25;23.90;99.90
44487;DHT22;30191;50.908;6.962;2022-08-01T11:50:52;23.90;99.90
44487;DHT22;30191;50.908;6.962;2022-08-01T11:53:19;23.90;99.90
44487;DHT22;30191;50.908;6.962;2022-08-01T11:55:51;23.90;99.90
44487;DHT22;30191;50.908;6.962;2022-08-01T11:58:21;23.90;99.90
44487;DHT22;30191;50.908;6.962;2022-08-01T12:00:55;23.90;99.90
44487;DHT22;30191;50.908;6.962;2022-08-01T12:03:30;23.90;99.90
44487;DHT22;30191;50.908;6.962;2022-08-01T12:05:58;23.90;99.90
44487;DHT22;30191;50.908;6.962;2022-08-01T12:08:25;23.90;99.90
44487;DHT22;30191;50.908;6.962;2022-08-01T12:10:51;23.90;99.90
44487;DHT22;30191;50.908;6.962;2022-08-01T12:13:17;23.90;99.90
44487;DHT22;30191;50.908;6.962;2022-08-01T12:15:43;23.90;99.90
44487;DHT22;30191;50.908;6.962;2022-08-01T12:18:10;24.00;99.90
44487;DHT22;30191;50.908;6.962;2022-08-01T12:20:38;24.00;99.90
44487;DHT22;30191;50.908;6.962;2022-08-01T12:23:07;24.00;99.90
44487;DHT22;30191;50.908;6.962;2022-08-01T12:25:34;24.10;99.90
44487;DHT22;30191;50.908;6.962;2022-08-01T12:28:02;24.20;99.90
44487;DHT22;30191;50.908;6.962;2022-08-01T12:30:28;24.20;99.90
44487;DHT22;30191;50.908;6.962;2022-08-01T12:32:56;24.20;99.90
44487;DHT22;30191;50.908;6.962;2022-08-01T12:35:27;24.20;99.90
44487;DHT22;30191;50.908;6.962;2022-08-01T12:37:56;24.20;99.90
44487;DHT22;30191;50.908;6.962;2022-08-01T12:40:25;24.20;99.90
44487;DHT22;30191;50.908;6.962;2022-08-01T12:42:56;24.20;99.90
44487;DHT22;30191;50.908;6.962;2022-08-01T12:45:25;24.20;99.90
44487;DHT22;30191;50.908;6.962;2022-08-01T12:47:53;24.20;99.90
44487;DHT22;30191;50.908;6.962;2022-08-01T12:50:21;24.20;99.90
44487;DHT22;30191;50.908;6.962;2022-08-01T12:52:48;24.20;99.90
44487;DHT22;30191;50.908;6.962;2022-08-01T12:55:19;24.30;99.90
44487;DHT22;30191;50.908;6.962;2022-08-01T12:58:02;24.30;99.90
44487;DHT22;30191;50.908;6.962;2022-08-01T13:00:28;24.30;99.90
44487;DHT22;30191;50.908;6.962;2022-08-01T13:03:07;24.30;99.90
44487;DHT22;30191;50.908;6.962;2022-08-01T13:05:50;24.30;99.90
44487;DHT22;30191;50.908;6.962;2022-08-01T13:08:21;24.40;99.90
44487;DHT22;30191;50.908;6.962;2022-08-01T13:10:47;24.50;99.90
44487;DHT22;30191;50.908;6.962;2022-08-01T13:13:15;24.50;99.90
44487;DHT22;30191;50.908;6.962;2022-08-01T13:15:43;24.60;99.90
44487;DHT22;30191;50.908;6.962;2022-08-01T13:18:29;24.60;99.90
44487;DHT22;30191;50.908;6.962;2022-08-01T13:23:41;24.70;99.90
44487;DHT22;30191;50.908;6.962;2022-08-01T13:26:07;24.70;99.90
44487;DHT22;30191;50.908;6.962;2022-08-01T13:28:33;24.70;99.90
44487;DHT22;30191;50.908;6.962;2022-08-01T13:31:07;24.60;99.90
44487;DHT22;30191;50.908;6.962;2022-08-01T13:33:53;24.60;99.90
44487;DHT22;30191;50.908;6.962;2022-08-01T13:36:18;24.60;99.90
44487;DHT22;30191;50.908;6.962;2022-08-01T13:38:44;24.60;99.90
44487;DHT22;30191;50.908;6.962;2022-08-01T13:41:28;24.60;99.90
44487;DHT22;30191;50.908;6.962;2022-08-01T13:43:54;24.60;99.90
44487;DHT22;30191;50.908;6.962;2022-08-01T13:46:20;24.60;99.90
44487;DHT22;30191;50.908;6.962;2022-08-01T13:48:46;24.60;99.90
44487;DHT22;30191;50.908;6.962;2022-08-01T13:51:11;24.60;99.90
44487;DHT22;30191;50.908;6.962;2022-08-01T13:53:37;24.60;99.90
44487;DHT22;30191;50.908;6.962;2022-08-01T13:56:03;24.60;99.90
44487;DHT22;30191;50.908;6.962;2022-08-01T13:58:28;24.60;99.90
44487;DHT22;30191;50.908;6.962;2022-08-01T14:00:55;24.60;99.90
44487;DHT22;30191;50.908;6.962;2022-08-01T14:03:21;24.60;99.90
44487;DHT22;30191;50.908;6.962;2022-08-01T14:05:47;24.50;99.90
44487;DHT22;30191;50.908;6.962;2022-08-01T14:08:14;24.50;99.90
44487;DHT22;30191;50.908;6.962;2022-08-01T14:10:40;24.50;99.90
44487;DHT22;30191;50.908;6.962;2022-08-01T14:13:05;24.50;99.90
44487;DHT22;30191;50.908;6.962;2022-08-01T14:15:32;24.50;99.90
44487;DHT22;30191;50.908;6.962;2022-08-01T14:17:58;24.50;99.90
44487;DHT22;30191;50.908;6.962;2022-08-01T14:20:24;24.50;99.90
44487;DHT22;30191;50.908;6.962;2022-08-01T14:22:50;24.50;99.90
44487;DHT22;30191;50.908;6.962;2022-08-01T14:25:15;24.60;99.90
44487;DHT22;30191;50.908;6.962;2022-08-01T14:27:44;24.70;99.90
44487;DHT22;30191;50.908;6.962;2022-08-01T14:30:10;24.80;99.90
44487;DHT22;30191;50.908;6.962;2022-08-01T14:32:36;24.90;99.90
44487;DHT22;30191;50.908;6.962;2022-08-01T14:35:04;25.00;99.90
44487;DHT22;30191;50.908;6.962;2022-08-01T14:37:30;25.00;99.90
44487;DHT22;30191;50.908;6.962;2022-08-01T14:39:56;25.00;99.90
44487;DHT22;30191;50.908;6.962;2022-08-01T14:42:23;25.00;99.90
44487;DHT22;30191;50.908;6.962;2022-08-01T14:44:49;25.00;99.90
44487;DHT22;30191;50.908;6.962;2022-08-01T14:47:15;25.00;99.90
44487;DHT22;30191;50.908;6.962;2022-08-01T14:49:40;25.00;99.90
44487;DHT22;30191;50.908;6.962;2022-08-01T14:52:06;25.00;99.90
44487;DHT22;30191;50.908;6.962;2022-08-01T14:54:32;25.00;99.90
44487;DHT22;30191;50.908;6.962;2022-08-01T14:56:58;25.00;99.90
44487;DHT22;30191;50.908;6.962;2022-08-01T14:59:24;25.10;99.90
44487;DHT22;30191;50.908;6.962;2022-08-01T15:01:50;25.10;99.90
44487;DHT22;30191;50.908;6.962;2022-08-01T15:04:15;25.10;99.90
44487;DHT22;30191;50.908;6.962;2022-08-01T15:06:43;25.10;99.90
44487;DHT22;30191;50.908;6.962;2022-08-01T15:09:08;25.10;99.90
44487;DHT22;30191;50.908;6.962;2022-08-01T15:11:34;25.10;99.90
44487;DHT22;30191;50.908;6.962;2022-08-01T15:14:00;25.10;99.90
44487;DHT22;30191;50.908;6.962;2022-08-01T15:16:44;25.10;99.90
44487;DHT22;30191;50.908;6.962;2022-08-01T15:19:10;25.10;99.90
44487;DHT22;30191;50.908;6.962;2022-08-01T15:21:36;25.10;99.90
44487;DHT22;30191;50.908;6.962;2022-08-01T15:24:01;25.10;99.90
44487;DHT22;30191;50.908;6.962;2022-08-01T15:26:27;25.20;99.90
44487;DHT22;30191;50.908;6.962;2022-08-01T15:28:55;25.20;99.90
44487;DHT22;30191;50.908;6.962;2022-08-01T15:31:20;25.30;99.90
44487;DHT22;30191;50.908;6.962;2022-08-01T15:33:46;25.30;99.90
44487;DHT22;30191;50.908;6.962;2022-08-01T15:36:11;25.30;99.90
44487;DHT22;30191;50.908;6.962;2022-08-01T15:38:37;25.20;99.90
44487;DHT22;30191;50.908;6.962;2022-08-01T15:41:03;25.20;99.90
44487;DHT22;30191;50.908;6.962;2022-08-01T15:43:29;25.20;99.90
44487;DHT22;30191;50.908;6.962;2022-08-01T15:45:54;25.20;99.90
44487;DHT22;30191;50.908;6.962;2022-08-01T15:48:20;25.20;99.90
44487;DHT22;30191;50.908;6.962;2022-08-01T15:50:46;25.10;99.90
44487;DHT22;30191;50.908;6.962;2022-08-01T15:53:13;25.10;99.90
44487;DHT22;30191;50.908;6.962;2022-08-01T15:55:39;25.10;99.90
44487;DHT22;30191;50.908;6.962;2022-08-01T15:58:05;25.10;99.90
44487;DHT22;30191;50.908;6.962;2022-08-01T16:00:31;25.00;99.90
44487;DHT22;30191;50.908;6.962;2022-08-01T16:02:56;25.00;99.90
44487;DHT22;30191;50.908;6.962;2022-08-01T16:05:22;25.00;99.90
44487;DHT22;30191;50.908;6.962;2022-08-01T16:07:48;25.00;99.90
44487;DHT22;30191;50.908;6.962;2022-08-01T16:10:14;25.00;99.90
44487;DHT22;30191;50.908;6.962;2022-08-01T16:12:40;25.00;99.90
44487;DHT22;30191;50.908;6.962;2022-08-01T16:15:06;25.00;99.90
44487;DHT22;30191;50.908;6.962;2022-08-01T16:17:32;25.00;99.90
44487;DHT22;30191;50.908;6.962;2022-08-01T16:19:57;25.00;99.90